Time;durP1;ratioP1;P1;durP2;ratioP2;P2;SDS_P1;SDS_P2;PMS_P1;PMS_P2;Temp;Humidity;BMP_temperature;BMP_pressure;BME280_temperature;BME280_humidity;BME280_pressure;Samples;Min_cycle;Max_cycle;Signal;HPM_P1;HPM_P2
2022/04/21 00:00:53;;;;;;;4.47;2.30;;;;;;;8.27;89.69;100573.09;5214564;28;20474;-79
2022/04/21 00:03:23;;;;;;;4.20;2.10;;;;;;;8.32;89.05;100577.28;5220557;28;20135;-77
2022/04/21 00:05:54;;;;;;;3.40;2.10;;;;;;;8.34;89.25;100565.09;5221025;28;20045;-78
2022/04/21 00:08:24;;;;;;;3.33;1.90;;;;;;;8.06;90.17;100574.47;5220199;28;20521;-78
2022/04/21 00:10:54;;;;;;;5.18;2.33;;;;;;;7.94;90.84;100560.91;5222119;28;20487;-78
2022/04/21 00:13:25;;;;;;;5.18;2.20;;;;;;;7.93;90.40;100567.88;5224306;28;20028;-77
2022/04/21 00:15:55;;;;;;;4.43;2.30;;;;;;;8.00;89.38;100559.03;5219805;28;20205;-78
2022/04/21 00:18:26;;;;;;;4.95;2.40;;;;;;;8.00;89.19;100559.03;5221605;28;20099;-78
2022/04/21 00:20:59;;;;;;;3.75;2.20;;;;;;;8.07;88.33;100547.53;5238240;22;20053;-78
2022/04/21 00:23:29;;;;;;;3.55;2.30;;;;;;;7.89;89.13;100550.63;5208598;28;20427;-78
2022/04/21 00:26:01;;;;;;;5.05;2.28;;;;;;;7.99;88.46;100549.50;5205078;28;20108;-77
2022/04/21 00:28:32;;;;;;;4.47;2.33;;;;;;;7.94;88.36;100553.13;5203097;28;20018;-78
2022/04/21 00:31:04;;;;;;;4.90;2.47;;;;;;;8.06;88.53;100553.66;5210659;28;20029;-77
2022/04/21 00:33:34;;;;;;;6.95;3.03;;;;;;;8.13;88.33;100546.53;5216882;28;20029;-78
2022/04/21 00:36:04;;;;;;;5.35;2.83;;;;;;;7.90;88.42;100541.91;5214731;28;20041;-78
2022/04/21 00:38:35;;;;;;;5.20;3.08;;;;;;;8.01;87.81;100550.31;5217942;28;20108;-78
2022/04/21 00:41:05;;;;;;;5.40;3.17;;;;;;;7.96;87.98;100546.13;5216408;28;20022;-78
2022/04/21 00:43:35;;;;;;;4.47;2.90;;;;;;;7.94;88.05;100540.09;5217547;28;20447;-79
2022/04/21 00:46:12;;;;;;;6.28;3.13;;;;;;;7.77;89.07;100540.53;5224987;28;20027;-78
2022/04/21 00:48:43;;;;;;;5.15;2.95;;;;;;;7.72;89.04;100534.56;5231087;28;20021;-78
2022/04/21 00:51:14;;;;;;;6.40;2.90;;;;;;;7.63;89.78;100541.75;5222986;28;20063;-78
2022/04/21 00:53:44;;;;;;;5.20;2.75;;;;;;;7.81;88.67;100543.91;5238659;28;20048;-78
2022/04/21 00:56:15;;;;;;;6.45;2.67;;;;;;;7.65;88.70;100553.84;5215286;28;20399;-78
2022/04/21 00:58:56;;;;;;;5.10;2.95;;;;;;;7.67;89.46;100546.00;5216303;28;20052;-79
2022/04/21 01:04:15;;;;;;;8.27;2.92;;;;;;;7.82;87.82;100551.69;5216058;28;20071;-78
2022/04/21 01:06:46;;;;;;;7.00;3.03;;;;;;;7.64;88.24;100548.66;5216499;28;20449;-78
2022/04/21 01:09:16;;;;;;;4.53;2.53;;;;;;;7.63;88.94;100552.16;5214281;28;20032;-78
2022/04/21 01:11:47;;;;;;;4.63;2.78;;;;;;;7.55;88.98;100548.91;5215973;28;20036;-79
2022/04/21 01:14:18;;;;;;;6.93;3.20;;;;;;;7.59;88.44;100546.19;5215239;28;20183;-78
2022/04/21 01:16:49;;;;;;;4.78;2.72;;;;;;;7.68;87.43;100556.34;5234550;28;20035;-78
2022/04/21 01:19:19;;;;;;;5.35;2.95;;;;;;;7.59;87.73;100554.00;5228266;28;20474;-79
2022/04/21 01:21:49;;;;;;;6.13;2.83;;;;;;;7.54;87.91;100549.78;5225819;28;20291;-78
2022/04/21 01:24:20;;;;;;;4.10;2.80;;;;;;;7.58;88.01;100554.88;5229678;28;20196;-78
2022/04/21 01:26:50;;;;;;;5.88;3.10;;;;;;;7.52;88.77;100552.41;5216068;28;20033;-79
2022/04/21 01:29:20;;;;;;;4.95;2.95;;;;;;;7.44;88.69;100550.88;5221675;28;20024;-79
2022/04/21 01:31:51;;;;;;;5.43;3.00;;;;;;;7.49;88.28;100555.09;5219957;28;20091;-79
2022/04/21 01:34:21;;;;;;;4.82;2.80;;;;;;;7.60;87.71;100547.03;5218764;28;20029;-79
2022/04/21 01:42:29;;;;;;;5.95;2.90;;;;;;;7.26;89.30;100561.69;5214790;28;20052;-79
2022/04/21 01:44:59;;;;;;;6.45;3.15;;;;;;;7.16;89.82;100556.75;5217934;28;20099;-79
2022/04/21 01:47:30;;;;;;;5.10;2.97;;;;;;;7.28;89.21;100569.47;5237275;28;20027;-79
2022/04/21 01:50:00;;;;;;;4.68;2.97;;;;;;;7.45;87.54;100563.84;5218600;28;20041;-79
2022/04/21 01:52:31;;;;;;;7.63;2.90;;;;;;;7.44;86.94;100564.75;5233679;28;20080;-79
2022/04/21 01:55:03;;;;;;;5.10;2.63;;;;;;;7.24;88.66;100573.03;5225868;28;20102;-78
2022/04/21 01:57:34;;;;;;;5.63;2.67;;;;;;;7.28;89.21;100553.88;5213991;28;20079;-79
2022/04/21 02:00:05;;;;;;;4.43;3.13;;;;;;;7.21;88.42;100558.34;5214019;28;20215;-76
2022/04/21 02:02:35;;;;;;;6.88;3.17;;;;;;;7.13;88.47;100560.25;5214162;28;20025;-78
2022/04/21 02:05:06;;;;;;;5.80;2.95;;;;;;;6.79;90.01;100559.25;5214464;28;20578;-78
2022/04/21 02:07:44;;;;;;;6.38;2.85;;;;;;;6.77;90.65;100557.59;5212636;28;20523;-78
2022/04/21 02:10:17;;;;;;;6.28;2.58;;;;;;;6.83;90.35;100547.06;5210909;28;20025;-78
2022/04/21 02:12:48;;;;;;;5.20;2.80;;;;;;;7.04;89.03;100544.88;5214339;28;20049;-78
2022/04/21 02:15:18;;;;;;;5.63;2.95;;;;;;;6.96;88.75;100540.75;5216785;28;20056;-78
2022/04/21 02:17:50;;;;;;;5.57;3.10;;;;;;;6.68;90.34;100545.66;5233575;28;20086;-78
2022/04/21 02:20:20;;;;;;;4.72;3.05;;;;;;;6.59;91.80;100539.81;5215808;28;20031;-77
2022/04/21 02:22:51;;;;;;;6.93;2.83;;;;;;;6.63;92.52;100537.09;5234624;28;20534;-78
2022/04/21 02:25:21;;;;;;;6.13;3.47;;;;;;;6.98;89.85;100538.97;5216226;28;20053;-78
2022/04/21 02:27:51;;;;;;;4.72;2.90;;;;;;;7.10;88.68;100534.34;5215162;28;20032;-78
2022/04/21 02:30:22;;;;;;;5.07;3.13;;;;;;;7.03;88.50;100542.31;5225773;28;20061;-77
2022/04/21 02:32:52;;;;;;;4.97;3.17;;;;;;;6.97;89.65;100532.06;5211712;28;20497;-78
2022/04/21 02:35:22;;;;;;;5.22;3.28;;;;;;;6.51;92.79;100532.16;5215151;28;20032;-78
2022/04/21 02:37:52;;;;;;;6.32;3.05;;;;;;;6.41;94.45;100534.97;5209857;28;20553;-78
2022/04/21 02:40:23;;;;;;;5.78;3.17;;;;;;;6.65;93.39;100529.28;5213711;28;20017;-78
2022/04/21 02:42:54;;;;;;;6.00;3.25;;;;;;;6.64;93.55;100543.16;5211825;28;20295;-78
2022/04/21 02:45:25;;;;;;;5.68;3.00;;;;;;;6.77;93.87;100529.03;5214940;28;20024;-78
2022/04/21 02:47:55;;;;;;;5.75;3.17;;;;;;;6.56;94.00;100526.88;5211918;28;20422;-78
2022/04/21 02:50:25;;;;;;;5.45;3.20;;;;;;;6.53;95.68;100522.59;5213071;28;20025;-78
2022/04/21 02:52:57;;;;;;;5.97;3.20;;;;;;;6.50;95.39;100519.19;5234754;28;20041;-78
2022/04/21 02:58:19;;;;;;;6.47;3.63;;;;;;;6.48;98.24;100527.03;5216058;28;20040;-78
2022/04/21 03:00:50;;;;;;;5.50;3.08;;;;;;;6.59;97.27;100519.88;5233864;28;20025;-78
2022/04/21 03:03:20;;;;;;;5.10;2.95;;;;;;;6.28;100.00;100523.13;5213894;28;20021;-78
2022/04/21 03:05:51;;;;;;;5.18;3.15;;;;;;;6.30;99.29;100522.22;5211417;28;20479;-77
2022/04/21 03:08:22;;;;;;;5.50;3.33;;;;;;;6.20;100.00;100522.38;5215365;28;20399;-78
2022/04/21 03:10:52;;;;;;;5.07;3.08;;;;;;;6.38;100.00;100517.72;5209519;28;20021;-78
2022/04/21 03:13:22;;;;;;;4.88;3.03;;;;;;;6.68;97.82;100518.81;5214827;28;20029;-78
2022/04/21 03:15:52;;;;;;;5.20;3.25;;;;;;;6.83;97.22;100508.13;5210914;28;20033;-78
2022/04/21 03:18:23;;;;;;;5.28;3.08;;;;;;;6.92;95.81;100500.97;5214885;28;20104;-78
2022/04/21 03:26:31;;;;;;;6.80;3.03;;;;;;;6.77;97.33;100496.09;5212520;28;20047;-78
2022/04/21 03:29:01;;;;;;;5.40;3.28;;;;;;;6.94;94.14;100498.34;5219125;28;20020;-78
2022/04/21 03:31:32;;;;;;;4.53;2.97;;;;;;;6.93;96.36;100499.25;5229847;28;20532;-79
2022/04/21 03:34:05;;;;;;;6.15;3.58;;;;;;;7.12;93.74;100495.34;5212664;28;20029;-77
2022/04/21 03:36:35;;;;;;;9.55;3.60;;;;;;;7.13;93.52;100487.50;5214286;28;20475;-78
2022/04/21 03:39:05;;;;;;;7.32;3.30;;;;;;;7.22;91.95;100482.94;5215961;28;20095;-78
2022/04/21 03:41:36;;;;;;;6.72;3.40;;;;;;;7.46;90.48;100490.16;5217046;28;20021;-77
2022/04/21 03:44:06;;;;;;;7.65;3.40;;;;;;;7.40;88.14;100481.66;5217142;28;20035;-78
2022/04/21 03:46:40;;;;;;;7.00;3.72;;;;;;;7.21;90.71;100492.53;5217188;28;20626;-78
2022/04/21 03:49:10;;;;;;;8.02;3.83;;;;;;;7.45;89.16;100485.88;5216300;28;20418;-77
2022/04/21 03:51:40;;;;;;;6.30;3.70;;;;;;;7.51;89.56;100482.25;5225842;28;20028;-78
2022/04/21 03:54:11;;;;;;;6.15;3.47;;;;;;;7.41;90.29;100484.22;5232975;28;20029;-78
2022/04/21 03:56:41;;;;;;;7.72;2.83;;;;;;;7.59;89.03;100494.19;5217697;28;20064;-78
2022/04/21 03:59:11;;;;;;;5.28;3.30;;;;;;;7.60;89.17;100482.88;5228119;28;20048;-78
2022/04/21 04:01:41;;;;;;;6.00;3.33;;;;;;;7.68;88.87;100483.53;5233135;28;20478;-78
2022/04/21 04:04:12;;;;;;;5.53;3.38;;;;;;;7.31;89.20;100487.94;5215905;28;20379;-79
2022/04/21 04:12:21;;;;;;;6.47;3.13;;;;;;;7.57;88.45;100488.16;5213886;28;20444;-78
2022/04/21 04:14:52;;;;;;;6.22;3.25;;;;;;;7.55;88.86;100486.50;5211749;28;20021;-80
2022/04/21 04:17:22;;;;;;;4.82;3.28;;;;;;;7.61;88.25;100486.31;5213952;28;20024;-78
2022/04/21 04:19:53;;;;;;;5.10;3.35;;;;;;;7.45;88.73;100491.06;5217611;28;20038;-78
2022/04/21 04:22:23;;;;;;;6.22;3.47;;;;;;;7.31;88.75;100500.94;5233366;28;20028;-78
2022/04/21 04:24:55;;;;;;;5.82;3.67;;;;;;;7.45;88.88;100506.66;5228928;28;20051;-78
2022/04/21 04:27:25;;;;;;;6.22;3.38;;;;;;;7.47;89.03;100499.69;5217769;28;20135;-78
2022/04/21 04:29:56;;;;;;;6.00;3.95;;;;;;;7.41;89.21;100502.44;5235912;28;20060;-78
2022/04/21 04:32:26;;;;;;;6.03;3.30;;;;;;;7.33;89.84;100506.94;5227992;28;20060;-78
2022/04/21 04:34:56;;;;;;;5.20;3.20;;;;;;;7.45;90.24;100493.66;5217634;28;20477;-78
2022/04/21 04:37:27;;;;;;;7.47;3.47;;;;;;;7.48;90.20;100496.19;5220966;28;20029;-79
2022/04/21 04:39:59;;;;;;;6.38;3.30;;;;;;;7.44;90.51;100494.56;5220406;28;20131;-77
2022/04/21 04:42:29;;;;;;;7.63;3.92;;;;;;;7.39;90.22;100490.34;5218100;28;20032;-78
2022/04/21 04:47:48;;;;;;;4.88;3.30;;;;;;;7.37;91.91;100498.16;5220461;28;20024;-77
2022/04/21 04:50:19;;;;;;;8.05;3.15;;;;;;;7.52;89.65;100490.00;5217073;28;20026;-78
2022/04/21 04:52:49;;;;;;;5.93;2.80;;;;;;;7.49;90.53;100497.88;5234510;28;20021;-78
2022/04/21 04:55:20;;;;;;;4.90;3.20;;;;;;;7.48;90.47;100500.50;5224180;28;20528;-78
2022/04/21 04:57:50;;;;;;;6.60;3.00;;;;;;;7.73;89.47;100501.63;5220038;28;20024;-78
2022/04/21 05:00:20;;;;;;;5.82;2.90;;;;;;;7.80;88.21;100501.44;5236732;28;20056;-78
2022/04/21 05:02:51;;;;;;;6.05;2.65;;;;;;;7.66;88.28;100505.28;5217517;28;20025;-77
2022/04/21 05:05:21;;;;;;;6.30;2.60;;;;;;;7.66;88.89;100513.09;5210571;28;20036;-80
2022/04/21 05:07:51;;;;;;;11.43;3.20;;;;;;;7.78;87.19;100508.44;5210258;28;20078;-77
2022/04/21 05:10:23;;;;;;;5.77;2.80;;;;;;;7.50;90.46;100519.56;5207553;28;20048;-78
2022/04/21 05:12:53;;;;;;;5.95;2.80;;;;;;;7.33;92.77;100517.34;5208266;28;20271;-78
2022/04/21 05:15:23;;;;;;;6.57;2.50;;;;;;;7.29;92.48;100514.84;5208984;28;20033;-78
2022/04/21 05:17:55;;;;;;;8.18;2.40;;;;;;;7.31;93.05;100526.91;5209542;28;20278;-78
2022/04/21 05:20:26;;;;;;;6.20;2.50;;;;;;;7.27;92.69;100531.38;5208868;28;20556;-78
2022/04/21 05:23:05;;;;;;;7.35;2.70;;;;;;;7.20;94.65;100530.66;5227079;28;20059;-79
2022/04/21 05:25:36;;;;;;;5.47;2.80;;;;;;;7.10;94.28;100543.91;5215133;28;20014;-79
2022/04/21 05:28:09;;;;;;;8.65;2.58;;;;;;;7.02;93.16;100536.28;5211988;28;20130;-79
2022/04/21 05:30:58;;;;;;;6.15;2.60;;;;;;;6.89;93.46;100542.59;5236820;28;20122;-79
2022/04/21 05:33:29;;;;;;;5.15;2.70;;;;;;;7.00;93.89;100543.25;5214580;28;20495;-79
2022/04/21 05:36:00;;;;;;;4.00;2.53;;;;;;;7.13;93.02;100546.41;5216487;28;20025;-79
2022/04/21 05:38:31;;;;;;;6.32;2.80;;;;;;;7.11;94.58;100548.22;5213025;28;20252;-79
2022/04/21 05:41:03;;;;;;;8.07;2.90;;;;;;;7.12;93.63;100536.91;5215405;28;20451;-79
2022/04/21 05:43:40;;;;;;;5.88;2.40;;;;;;;7.26;92.91;100537.47;5213919;28;20463;-79
2022/04/21 05:46:13;;;;;;;6.72;2.70;;;;;;;7.28;92.74;100535.69;5215190;28;20029;-79
2022/04/21 05:48:43;;;;;;;5.95;2.63;;;;;;;7.31;93.87;100534.72;5212461;28;20032;-80
2022/04/21 05:51:15;;;;;;;5.63;2.67;;;;;;;7.36;92.51;100537.22;5218746;28;20025;-78
2022/04/21 05:53:48;;;;;;;6.13;2.70;;;;;;;7.12;93.63;100542.13;5222920;28;20554;-80
2022/04/21 05:56:19;;;;;;;5.93;2.63;;;;;;;7.13;94.65;100538.63;5219479;28;20639;-81
2022/04/21 05:58:49;;;;;;;6.22;2.60;;;;;;;7.22;94.26;100543.59;5219792;28;20082;-80
2022/04/21 06:01:32;;;;;;;5.63;3.00;;;;;;;7.36;94.44;100550.22;5229245;28;20112;-81
2022/04/21 06:04:02;;;;;;;6.43;2.72;;;;;;;7.50;93.56;100546.41;5209688;28;20382;-80
2022/04/21 06:06:33;;;;;;;5.10;2.53;;;;;;;7.47;93.67;100551.66;5216619;28;20021;-80
2022/04/21 06:09:03;;;;;;;6.88;2.70;;;;;;;7.51;92.13;100552.47;5215895;28;20037;-79
2022/04/21 06:11:35;;;;;;;7.40;2.92;;;;;;;7.69;91.81;100552.88;5214825;28;20025;-78
2022/04/21 06:14:05;;;;;;;7.35;2.70;;;;;;;7.60;91.41;100552.22;5214231;28;20519;-79
2022/04/21 06:16:35;;;;;;;6.22;2.63;;;;;;;7.73;91.21;100543.25;5215215;28;20079;-78
2022/04/21 06:19:05;;;;;;;6.47;2.90;;;;;;;7.70;92.15;100554.56;5215843;28;20025;-80
2022/04/21 06:21:36;;;;;;;4.93;2.60;;;;;;;7.55;91.33;100547.13;5270566;22;20407;-78
2022/04/21 06:24:06;;;;;;;4.82;2.40;;;;;;;7.81;90.97;100542.16;5222085;28;20024;-78
2022/04/21 06:26:38;;;;;;;7.63;2.80;;;;;;;7.63;91.69;100558.22;5223732;28;20025;-78
2022/04/21 06:29:08;;;;;;;11.38;3.10;;;;;;;7.63;93.15;100553.03;5222534;28;20099;-78
2022/04/21 06:31:39;;;;;;;7.72;2.67;;;;;;;7.94;90.72;100542.69;5223171;28;20084;-78
2022/04/21 06:34:09;;;;;;;4.75;2.53;;;;;;;7.60;92.49;100541.81;5224231;28;20170;-78
2022/04/21 06:36:39;;;;;;;5.57;2.97;;;;;;;7.78;90.65;100537.03;5223900;28;20097;-78
2022/04/21 06:39:09;;;;;;;6.43;2.83;;;;;;;7.59;92.65;100533.19;5223201;28;20479;-78
2022/04/21 06:41:40;;;;;;;7.25;2.53;;;;;;;7.83;92.39;100534.31;5222276;28;20048;-78
2022/04/21 06:49:48;;;;;;;14.45;2.90;;;;;;;7.33;95.39;100551.13;5223837;28;20040;-78
2022/04/21 06:52:18;;;;;;;7.68;3.20;;;;;;;7.41;95.74;100553.56;5227160;28;20498;-78
2022/04/21 06:54:48;;;;;;;9.30;3.40;;;;;;;7.35;95.35;100559.75;5228012;28;20021;-76
2022/04/21 06:57:19;;;;;;;6.22;2.72;;;;;;;7.42;95.13;100558.72;5227622;28;20021;-77
2022/04/21 06:59:50;;;;;;;6.25;3.00;;;;;;;7.39;96.31;100563.13;5228372;28;20420;-76
2022/04/21 07:02:31;;;;;;;5.38;2.90;;;;;;;7.44;95.76;100556.06;5227007;28;20028;-78
2022/04/21 07:05:06;;;;;;;7.43;3.10;;;;;;;7.43;95.09;100550.03;5224743;28;20514;-77
2022/04/21 07:07:39;;;;;;;;;;;;;;;7.48;94.91;100557.72;5228915;28;20056;-78
2022/04/21 07:10:11;;;;;;;7.70;2.80;;;;;;;7.49;95.66;100565.50;5224927;28;19927;-78
2022/04/21 07:12:41;;;;;;;9.05;3.42;;;;;;;7.53;96.81;100564.50;5222515;28;20048;-77
2022/04/21 07:15:13;;;;;;;7.75;3.25;;;;;;;7.78;94.92;100570.88;5223219;28;20021;-78
2022/04/21 07:17:43;;;;;;;7.38;3.00;;;;;;;7.94;92.62;100563.50;5223138;28;20025;-78
2022/04/21 07:20:14;;;;;;;6.57;3.00;;;;;;;8.07;92.02;100567.53;5229539;28;20033;-76
2022/04/21 07:22:44;;;;;;;7.25;2.88;;;;;;;8.14;92.70;100571.66;5234680;28;20029;-76
2022/04/21 07:25:15;;;;;;;7.93;2.97;;;;;;;8.04;92.36;100578.84;5230457;28;20029;-78
2022/04/21 07:27:45;;;;;;;9.23;3.10;;;;;;;7.96;92.33;100582.53;5223060;28;20055;-78
2022/04/21 07:30:15;;;;;;;6.15;2.97;;;;;;;7.95;92.72;100576.50;5221890;28;20051;-78
2022/04/21 07:32:45;;;;;;;9.90;3.08;;;;;;;8.37;91.93;100574.56;5222837;28;20475;-78
2022/04/21 07:35:17;;;;;;;8.35;3.03;;;;;;;8.12;93.08;100584.75;5236801;28;20158;-78
2022/04/21 07:37:47;;;;;;;6.88;3.10;;;;;;;8.49;91.16;100579.44;5235303;28;20021;-77
2022/04/21 07:40:20;;;;;;;8.05;3.38;;;;;;;8.17;92.66;100577.66;5236567;28;20447;-76
2022/04/21 07:42:50;;;;;;;8.95;3.10;;;;;;;8.41;92.84;100577.03;5235897;28;20013;-78
2022/04/21 07:45:20;;;;;;;8.20;2.90;;;;;;;8.71;90.64;100573.59;5229474;28;20032;-77
2022/04/21 07:47:51;;;;;;;5.80;2.80;;;;;;;8.93;88.62;100571.25;5232430;28;20075;-75
2022/04/21 07:50:24;;;;;;;9.43;3.00;;;;;;;8.60;89.90;100580.00;5233708;28;20044;-76
2022/04/21 07:55:46;;;;;;;7.63;2.78;;;;;;;8.84;92.15;100579.31;5226096;28;20274;-78
2022/04/21 07:58:16;;;;;;;6.50;3.10;;;;;;;9.21;88.72;100571.25;5227558;28;20060;-78
2022/04/21 08:00:46;;;;;;;5.28;2.70;;;;;;;10.54;83.49;100550.25;5227577;28;20021;-77
2022/04/21 08:03:19;;;;;;;7.13;2.80;;;;;;;10.84;81.44;100554.38;5225295;28;20027;-78
2022/04/21 08:05:50;;;;;;;5.53;2.53;;;;;;;10.29;82.26;100556.41;5221834;28;20021;-77
2022/04/21 08:08:20;;;;;;;5.65;2.50;;;;;;;9.87;85.51;100560.44;5221550;28;20027;-78
2022/04/21 08:10:50;;;;;;;4.53;2.50;;;;;;;10.82;82.13;100550.13;5222837;28;20189;-78
2022/04/21 08:13:21;;;;;;;5.93;2.45;;;;;;;10.10;83.27;100563.16;5223407;28;20033;-78
2022/04/21 08:15:53;;;;;;;5.68;2.50;;;;;;;11.27;81.16;100544.00;5222936;28;20487;-78
2022/04/21 08:18:23;;;;;;;7.32;2.78;;;;;;;11.99;78.26;100539.28;5223811;28;20477;-78
2022/04/21 08:20:58;;;;;;;5.63;2.40;;;;;;;12.80;74.15;100533.06;5223881;28;20447;-78
2022/04/21 08:23:28;;;;;;;8.30;2.88;;;;;;;13.54;71.52;100519.97;5223875;28;20367;-78
2022/04/21 08:34:32;;;;;;;7.43;2.88;;;;;;;12.13;76.22;100539.56;5228223;28;20040;-78
2022/04/21 08:37:02;;;;;;;6.95;2.75;;;;;;;11.49;78.52;100543.09;5227010;28;20039;-78
2022/04/21 08:39:32;;;;;;;9.13;2.97;;;;;;;12.41;74.99;100529.59;5226916;28;20083;-78
2022/04/21 08:42:10;;;;;;;5.10;2.33;;;;;;;11.56;76.75;100530.63;5227914;28;20025;-78
2022/04/21 08:44:44;;;;;;;6.18;2.80;;;;;;;11.04;80.66;100547.50;5226673;28;20059;-78
2022/04/21 08:47:19;;;;;;;6.25;2.75;;;;;;;11.01;80.14;100535.47;5226757;28;20016;-78
2022/04/21 08:49:52;;;;;;;7.85;2.65;;;;;;;10.78;80.85;100538.94;5225028;28;20017;-78
2022/04/21 08:52:24;;;;;;;6.22;2.90;;;;;;;10.78;81.47;100538.06;5224717;28;20357;-78
2022/04/21 08:54:54;;;;;;;4.90;2.47;;;;;;;10.64;82.56;100537.69;5222479;28;20025;-78
2022/04/21 08:57:26;;;;;;;6.78;3.17;;;;;;;11.40;79.93;100540.84;5226671;28;20083;-78
2022/04/21 09:00:00;;;;;;;6.75;2.75;;;;;;;10.52;81.79;100536.38;5225387;28;20040;-78
2022/04/21 09:02:35;;;;;;;8.68;3.08;;;;;;;10.66;82.84;100531.53;5224715;28;20028;-78
2022/04/21 09:05:06;;;;;;;9.20;3.00;;;;;;;10.65;82.59;100539.44;5225330;28;20060;-78
2022/04/21 09:07:47;;;;;;;6.25;3.15;;;;;;;10.98;84.81;100536.41;5224929;28;20095;-77
2022/04/21 09:10:19;;;;;;;5.10;2.65;;;;;;;11.29;82.33;100537.78;5225046;28;20028;-78
2022/04/21 09:12:55;;;;;;;9.38;2.70;;;;;;;10.70;82.10;100546.19;5225332;28;20382;-78
2022/04/21 09:15:30;;;;;;;;;;;;;;;10.72;82.71;100546.13;5222190;28;20032;-78
2022/04/21 09:18:08;;;;;;;8.50;3.28;;;;;;;11.14;80.48;100540.97;5223604;28;19919;-77
2022/04/21 09:20:41;;;;;;;6.88;2.53;;;;;;;11.16;81.78;100547.03;5224664;28;20047;-78
2022/04/21 09:23:11;;;;;;;6.63;2.80;;;;;;;11.54;80.78;100538.53;5223561;28;20027;-78
2022/04/21 09:25:46;;;;;;;9.82;3.17;;;;;;;11.24;81.20;100554.59;5224629;28;20488;-78
2022/04/21 09:28:29;;;;;;;8.37;2.83;;;;;;;11.12;82.99;100545.44;5225834;28;20363;-77
2022/04/21 09:31:01;;;;;;;8.65;3.03;;;;;;;10.44;84.43;100548.03;5222046;28;20024;-77
2022/04/21 09:33:34;;;;;;;7.47;3.20;;;;;;;10.60;85.24;100551.78;5223119;28;20317;-78
2022/04/21 09:36:05;;;;;;;9.85;3.30;;;;;;;10.96;85.25;100548.69;5223454;28;20033;-77
2022/04/21 09:38:37;;;;;;;6.45;3.17;;;;;;;11.01;83.01;100549.38;5223753;28;20025;-78
2022/04/21 09:41:09;;;;;;;7.28;3.08;;;;;;;10.57;85.01;100537.09;5225595;28;20035;-78
2022/04/21 09:43:41;;;;;;;6.82;3.60;;;;;;;10.61;86.90;100543.91;5225536;28;20025;-78
2022/04/21 09:46:17;;;;;;;7.25;3.55;;;;;;;10.66;86.63;100539.38;5225167;28;20043;-78
2022/04/21 09:48:55;;;;;;;7.60;3.30;;;;;;;10.97;85.17;100550.41;5224308;28;20521;-78
2022/04/21 09:51:27;;;;;;;8.23;3.60;;;;;;;11.09;84.31;100537.69;5224249;28;20393;-79
2022/04/21 09:54:03;;;;;;;8.52;3.30;;;;;;;11.21;83.33;100541.59;5224554;28;20037;-78
2022/04/21 09:56:41;;;;;;;11.98;2.97;;;;;;;11.11;83.75;100546.34;5225771;28;20551;-78
2022/04/21 09:59:13;;;;;;;6.95;2.88;;;;;;;11.24;82.28;100544.13;5224860;28;20048;-78
2022/04/21 10:01:44;;;;;;;6.45;2.90;;;;;;;11.26;82.85;100544.91;5224998;28;20029;-78
2022/04/21 10:04:18;;;;;;;7.03;3.13;;;;;;;11.11;83.01;100535.88;5223460;28;20040;-78
2022/04/21 10:06:48;;;;;;;6.68;3.17;;;;;;;11.28;83.66;100543.94;5224525;28;20036;-79
2022/04/21 10:09:20;;;;;;;5.10;2.90;;;;;;;11.30;81.83;100539.47;5224904;28;20478;-78
2022/04/21 10:11:52;;;;;;;8.45;2.85;;;;;;;11.22;82.88;100541.56;5222643;28;20048;-79
2022/04/21 10:14:23;;;;;;;5.57;2.90;;;;;;;11.10;83.39;100546.41;5224907;28;20506;-78
2022/04/21 10:16:53;;;;;;;8.15;3.40;;;;;;;10.60;85.80;100546.56;5218278;28;20120;-78
2022/04/21 10:19:25;;;;;;;8.13;3.22;;;;;;;10.67;85.73;100553.31;5222914;28;20522;-78
2022/04/21 10:22:01;;;;;;;6.93;3.10;;;;;;;10.52;86.35;100556.47;5218640;28;20024;-78
2022/04/21 10:24:34;;;;;;;9.82;3.20;;;;;;;10.81;86.25;100549.25;5224035;28;20025;-78
2022/04/21 10:27:04;;;;;;;8.40;3.13;;;;;;;11.03;85.74;100545.78;5221124;28;20029;-78
2022/04/21 10:29:49;;;;;;;7.68;2.95;;;;;;;11.26;85.12;100550.16;5223800;28;20108;-78
2022/04/21 10:32:19;;;;;;;9.48;3.13;;;;;;;10.90;85.43;100548.94;5223891;28;20025;-79
2022/04/21 10:34:56;;;;;;;7.22;3.03;;;;;;;11.04;85.96;100547.50;5223799;28;20035;-78
2022/04/21 10:37:33;;;;;;;5.57;3.10;;;;;;;11.02;83.74;100537.16;5220603;28;20064;-78
2022/04/21 10:40:06;;;;;;;6.40;3.50;;;;;;;10.60;86.52;100543.97;5223616;28;20107;-78
2022/04/21 10:42:51;;;;;;;7.28;3.28;;;;;;;10.30;88.59;100540.69;5222651;28;20024;-79
2022/04/21 10:45:23;;;;;;;7.82;3.83;;;;;;;10.36;89.53;100537.00;5224475;28;20021;-78
2022/04/21 10:48:12;;;;;;;7.13;3.35;;;;;;;10.70;88.89;100538.34;5223792;28;20051;-78
2022/04/21 10:50:43;;;;;;;4.95;3.03;;;;;;;11.10;86.12;100536.78;5221485;28;20020;-78
2022/04/21 10:59:10;;;;;;;6.63;3.70;;;;;;;11.30;87.77;100525.56;5224054;28;20088;-79
2022/04/21 11:01:52;;;;;;;9.95;3.28;;;;;;;11.02;86.01;100521.47;5221585;28;20060;-78
2022/04/21 11:04:23;;;;;;;9.43;3.28;;;;;;;11.11;86.32;100528.03;5224195;28;20025;-79
2022/04/21 11:07:06;;;;;;;6.32;3.15;;;;;;;11.14;86.46;100519.22;5222036;28;20037;-78
2022/04/21 11:09:38;;;;;;;8.60;3.42;;;;;;;11.18;87.05;100519.06;5221580;28;20021;-78
2022/04/21 11:12:11;;;;;;;8.63;3.75;;;;;;;11.00;88.28;100516.28;5221425;28;20033;-78
2022/04/21 11:14:43;;;;;;;9.02;4.05;;;;;;;10.88;89.33;100524.59;5221921;28;20028;-78
2022/04/21 11:17:15;;;;;;;9.27;3.65;;;;;;;11.26;86.87;100516.16;5223326;28;20087;-79
2022/04/21 11:19:52;;;;;;;6.97;3.38;;;;;;;10.92;88.23;100520.97;5223646;28;20036;-78
2022/04/21 11:22:39;;;;;;;7.88;3.30;;;;;;;11.22;86.17;100527.63;5220958;28;20029;-78
2022/04/21 11:25:11;;;;;;;6.97;3.33;;;;;;;11.58;85.85;100513.97;5221478;28;20383;-79
2022/04/21 11:27:44;;;;;;;7.43;3.38;;;;;;;11.61;84.26;100508.59;5221703;28;20025;-79
2022/04/21 11:30:15;;;;;;;11.30;3.47;;;;;;;11.81;83.72;100510.41;5223235;28;20032;-78
2022/04/21 11:32:51;;;;;;;5.90;3.50;;;;;;;11.51;85.17;100502.03;5223101;28;20357;-78
2022/04/21 11:35:22;;;;;;;;;;;;;;;12.07;83.30;100503.16;5222215;28;20031;-79
2022/04/21 11:37:59;;;;;;;6.70;3.25;;;;;;;12.27;81.42;100503.16;5223208;28;19999;-78
2022/04/21 11:40:31;;;;;;;6.40;3.10;;;;;;;11.77;83.66;100503.59;5219799;28;20025;-79
2022/04/21 11:43:11;;;;;;;6.63;3.17;;;;;;;11.54;84.67;100506.25;5222504;28;20044;-79
2022/04/21 11:45:44;;;;;;;8.77;3.53;;;;;;;11.46;85.81;100503.13;5222518;28;20040;-79
2022/04/21 11:48:14;;;;;;;8.27;3.70;;;;;;;11.56;85.24;100500.09;5223597;28;20399;-78
2022/04/21 11:50:46;;;;;;;7.13;3.50;;;;;;;11.59;85.37;100499.97;5222660;28;20036;-79
2022/04/21 11:53:21;;;;;;;6.50;3.13;;;;;;;11.97;83.00;100496.59;5221983;28;20116;-78
2022/04/21 11:55:51;;;;;;;6.50;3.28;;;;;;;12.02;83.99;100497.28;5222289;28;20028;-78
2022/04/21 11:58:35;;;;;;;11.93;3.53;;;;;;;12.35;81.86;100495.81;5220906;28;20025;-78
2022/04/21 12:06:52;;;;;;;9.35;3.55;;;;;;;11.76;86.48;100504.53;5226587;28;20064;-79
2022/04/21 12:09:25;;;;;;;6.55;3.35;;;;;;;12.25;82.35;100491.00;5226834;28;20025;-78
2022/04/21 12:11:57;;;;;;;9.55;3.80;;;;;;;12.40;82.08;100504.31;5221572;28;20095;-78
2022/04/21 12:14:29;;;;;;;5.93;3.35;;;;;;;12.26;82.91;100504.06;5225866;28;20029;-78
2022/04/21 12:17:04;;;;;;;6.53;3.42;;;;;;;12.35;81.58;100493.19;5226386;28;20056;-78
2022/04/21 12:19:39;;;;;;;6.25;2.95;;;;;;;12.33;83.46;100495.00;5228312;28;20040;-79
2022/04/21 12:22:12;;;;;;;7.30;3.53;;;;;;;12.52;82.25;100490.69;5227878;22;20525;-77
2022/04/21 12:24:51;;;;;;;6.00;3.42;;;;;;;12.69;82.02;100496.00;5217012;28;20064;-76
2022/04/21 12:27:34;;;;;;;6.45;3.28;;;;;;;12.71;81.79;100502.03;5220862;28;20486;-75
2022/04/21 12:30:06;;;;;;;6.43;3.10;;;;;;;12.31;82.54;100494.22;5217368;28;20138;-77
2022/04/21 12:32:39;;;;;;;8.05;3.88;;;;;;;12.28;81.69;100496.16;5197733;28;20400;-79
2022/04/21 12:35:11;;;;;;;7.00;3.13;;;;;;;12.44;82.05;100502.44;5193281;28;20513;-77
2022/04/21 12:37:44;;;;;;;7.88;3.65;;;;;;;12.38;82.19;100500.06;5193575;28;20472;-77
2022/04/21 12:40:15;;;;;;;5.80;3.20;;;;;;;12.20;83.27;100493.00;5192324;28;20057;-79
2022/04/21 12:42:47;;;;;;;8.18;4.00;;;;;;;12.66;83.27;100490.03;5195840;28;20033;-77
2022/04/21 12:45:18;;;;;;;5.47;3.38;;;;;;;12.94;81.09;100488.75;5191279;28;20040;-78
2022/04/21 12:47:50;;;;;;;7.80;3.78;;;;;;;12.33;81.59;100487.13;5191287;28;20064;-79